createdAt,value
2019-06-20T00:00:28.059Z,18.20
2019-06-20T00:01:04.637Z,18.20
2019-06-20T00:01:39.390Z,18.20
2019-06-20T00:02:18.143Z,18.30
2019-06-20T00:02:54.845Z,18.30
2019-06-20T00:03:34.029Z,18.20
2019-06-20T00:04:08.137Z,18.20
2019-06-20T00:04:42.918Z,18.20
2019-06-20T00:05:17.643Z,18.10
2019-06-20T00:05:51.677Z,18.10
2019-06-20T00:06:26.370Z,18.10
2019-06-20T00:07:01.029Z,18.10
2019-06-20T00:07:35.212Z,18.20
2019-06-20T00:08:09.926Z,18.20
2019-06-20T00:08:44.749Z,18.20
2019-06-20T00:09:18.970Z,18.30
2019-06-20T00:09:53.558Z,18.30
2019-06-20T00:10:28.446Z,18.30
2019-06-20T00:11:02.959Z,18.20
2019-06-20T00:11:37.773Z,18.30
2019-06-20T00:12:12.508Z,18.20
2019-06-20T00:12:59.525Z,18.10
2019-06-20T00:13:23.069Z,18.10
2019-06-20T00:13:57.738Z,18.00
2019-06-20T00:14:31.853Z,18.00
2019-06-20T00:15:06.850Z,18.00
2019-06-20T00:15:41.729Z,18.00
2019-06-20T00:16:15.839Z,18.00
2019-06-20T00:16:50.613Z,17.90
2019-06-20T00:17:25.221Z,17.90
2019-06-20T00:17:59.485Z,17.90
2019-06-20T00:18:34.263Z,18.00
2019-06-20T00:19:08.896Z,18.00
2019-06-20T00:19:42.967Z,18.00
2019-06-20T00:20:17.971Z,18.00
2019-06-20T00:20:52.802Z,18.00
2019-06-20T00:21:26.984Z,18.00
2019-06-20T00:22:01.593Z,18.00
2019-06-20T00:22:36.269Z,18.10
2019-06-20T00:23:10.528Z,18.10
2019-06-20T00:23:45.338Z,18.10
2019-06-20T00:24:20.017Z,18.20
2019-06-20T00:24:54.140Z,18.20
2019-06-20T00:25:28.911Z,18.20
2019-06-20T00:26:03.711Z,18.20
2019-06-20T00:26:37.760Z,18.20
2019-06-20T00:27:12.463Z,18.20
2019-06-20T00:27:47.157Z,18.30
2019-06-20T00:28:21.245Z,18.30
2019-06-20T00:28:56.015Z,18.20
2019-06-20T00:29:30.734Z,18.20
2019-06-20T00:30:05.358Z,18.20
2019-06-20T00:30:40.372Z,18.20
2019-06-20T00:31:15.071Z,18.20
2019-06-20T00:31:49.200Z,18.10
2019-06-20T00:32:23.815Z,18.10
2019-06-20T00:32:58.514Z,18.20
2019-06-20T00:33:32.795Z,18.20
2019-06-20T00:34:07.405Z,18.10
2019-06-20T00:34:42.069Z,18.20
2019-06-20T00:35:16.352Z,18.20
2019-06-20T00:35:50.980Z,18.20
2019-06-20T00:36:25.781Z,18.20
2019-06-20T00:36:59.903Z,18.20
2019-06-20T00:37:34.673Z,18.20
2019-06-20T00:38:09.503Z,18.10
2019-06-20T00:38:43.692Z,18.10
2019-06-20T00:39:18.519Z,18.00
2019-06-20T00:39:53.170Z,18.00
2019-06-20T00:40:27.509Z,18.00
2019-06-20T00:41:02.271Z,18.00
2019-06-20T00:41:37.535Z,18.00
2019-06-20T00:42:11.698Z,18.00
2019-06-20T00:42:46.366Z,18.00
2019-06-20T00:43:21.188Z,18.00
2019-06-20T00:43:55.238Z,17.90
2019-06-20T00:44:29.913Z,17.90
2019-06-20T00:45:05.135Z,17.90
2019-06-20T00:45:39.440Z,17.90
2019-06-20T00:46:14.251Z,17.90
2019-06-20T00:46:48.919Z,17.90
2019-06-20T00:47:23.046Z,17.90
2019-06-20T00:47:57.723Z,18.00
2019-06-20T00:48:32.317Z,17.90
2019-06-20T00:49:06.488Z,17.90
2019-06-20T00:49:41.097Z,17.90
2019-06-20T00:50:16.023Z,17.90
2019-06-20T00:50:50.351Z,17.90
2019-06-20T00:51:25.211Z,17.90
2019-06-20T00:52:00.054Z,17.80
2019-06-20T00:52:34.150Z,17.80
2019-06-20T00:53:08.823Z,17.90
2019-06-20T00:53:43.410Z,17.90
2019-06-20T00:54:17.426Z,17.90
2019-06-20T00:54:52.196Z,17.90
2019-06-20T00:55:26.939Z,17.90
2019-06-20T00:56:01.126Z,17.80
2019-06-20T00:56:35.825Z,17.80
2019-06-20T00:57:10.531Z,17.90
2019-06-20T00:57:44.938Z,17.90
2019-06-20T00:58:19.774Z,17.90
2019-06-20T00:58:54.670Z,17.90
2019-06-20T00:59:28.875Z,17.90
2019-06-20T01:00:03.798Z,17.90
2019-06-20T01:00:38.620Z,17.90
2019-06-20T01:01:12.728Z,18.00
2019-06-20T01:01:47.329Z,18.00
2019-06-20T01:02:22.281Z,18.00
2019-06-20T01:02:56.407Z,18.00
2019-06-20T01:03:31.211Z,18.10
2019-06-20T01:04:05.879Z,18.00
2019-06-20T01:04:40.069Z,18.00
2019-06-20T01:05:15.320Z,18.00
2019-06-20T01:05:50.110Z,18.00
2019-06-20T01:06:24.208Z,17.90
2019-06-20T01:06:58.935Z,18.00
2019-06-20T01:07:33.965Z,18.00
2019-06-20T01:08:08.126Z,18.00
2019-06-20T01:08:43.203Z,18.00
2019-06-20T01:09:17.940Z,17.90
2019-06-20T01:09:51.939Z,17.90
2019-06-20T01:10:26.590Z,18.00
2019-06-20T01:11:01.420Z,17.90
2019-06-20T01:11:35.715Z,18.00
2019-06-20T01:12:10.406Z,17.90
2019-06-20T01:12:44.999Z,17.90
2019-06-20T01:13:32.504Z,17.90
2019-06-20T01:13:55.597Z,17.90
2019-06-20T01:14:30.219Z,17.90
2019-06-20T01:15:05.817Z,17.90
2019-06-20T01:15:40.608Z,17.90
2019-06-20T01:16:15.692Z,17.80
2019-06-20T01:16:49.930Z,17.80
2019-06-20T01:17:24.695Z,17.80
2019-06-20T01:17:59.415Z,17.80
2019-06-20T01:18:33.834Z,17.80
2019-06-20T01:19:08.687Z,17.80
2019-06-20T01:19:43.348Z,17.80
2019-06-20T01:20:17.840Z,17.70
2019-06-20T01:20:52.579Z,17.70
2019-06-20T01:21:27.212Z,17.70
2019-06-20T01:22:01.246Z,17.60
2019-06-20T01:22:35.955Z,17.60
2019-06-20T01:23:10.716Z,17.60
2019-06-20T01:23:44.883Z,17.50
2019-06-20T01:24:19.813Z,17.50
2019-06-20T01:24:54.659Z,17.50
2019-06-20T01:25:36.957Z,17.50
2019-06-20T01:26:11.812Z,17.60
2019-06-20T01:26:46.571Z,17.60
2019-06-20T01:27:20.875Z,17.60
2019-06-20T01:27:55.558Z,17.60
2019-06-20T01:28:30.489Z,17.60
2019-06-20T01:29:04.840Z,17.60
2019-06-20T01:29:39.626Z,17.60
2019-06-20T01:30:14.822Z,17.60
2019-06-20T01:30:49.349Z,17.60
2019-06-20T01:31:24.143Z,17.70
2019-06-20T01:31:58.781Z,17.70
2019-06-20T01:32:32.875Z,17.70
2019-06-20T01:33:08.058Z,17.60
2019-06-20T01:33:42.833Z,17.70
2019-06-20T01:34:16.897Z,17.70
2019-06-20T01:34:51.558Z,17.70
2019-06-20T01:35:26.265Z,17.70
2019-06-20T01:36:00.562Z,17.70
2019-06-20T01:36:35.372Z,17.80
2019-06-20T01:37:10.187Z,17.80
2019-06-20T01:37:44.231Z,17.80
2019-06-20T01:38:18.828Z,17.80
2019-06-20T01:38:53.524Z,17.80
2019-06-20T01:39:28.002Z,17.70
2019-06-20T01:40:02.890Z,17.80
2019-06-20T01:40:37.749Z,17.80
2019-06-20T01:41:11.900Z,17.70
2019-06-20T01:41:46.461Z,17.80
2019-06-20T01:42:21.376Z,17.80
2019-06-20T01:42:55.638Z,17.80
2019-06-20T01:43:30.478Z,17.80
2019-06-20T01:44:05.380Z,17.80
2019-06-20T01:44:40.016Z,17.80
2019-06-20T01:45:15.095Z,17.80
2019-06-20T01:45:49.894Z,17.80
2019-06-20T01:46:24.211Z,17.80
2019-06-20T01:46:58.886Z,17.90
2019-06-20T01:47:33.720Z,17.90
2019-06-20T01:48:07.896Z,17.90
2019-06-20T01:48:42.623Z,17.90
2019-06-20T01:49:17.318Z,17.90
2019-06-20T01:49:51.946Z,17.90
2019-06-20T01:50:26.854Z,17.90
2019-06-20T01:51:01.553Z,17.80
2019-06-20T01:51:35.732Z,17.90
2019-06-20T01:52:10.413Z,17.90
2019-06-20T01:52:45.110Z,17.90
2019-06-20T01:53:19.288Z,17.80
2019-06-20T01:53:54.062Z,17.80
2019-06-20T01:54:28.777Z,17.80
2019-06-20T01:55:02.936Z,17.80
2019-06-20T01:55:37.710Z,17.80
2019-06-20T01:56:12.454Z,17.90
2019-06-20T01:56:46.538Z,17.90
2019-06-20T01:57:21.214Z,17.90
2019-06-20T01:57:56.107Z,17.90
2019-06-20T01:58:30.298Z,17.80
2019-06-20T01:59:05.321Z,17.80
2019-06-20T01:59:40.073Z,17.80
2019-06-20T02:00:25.907Z,17.80
2019-06-20T02:01:00.740Z,17.80
2019-06-20T02:01:35.732Z,17.80
2019-06-20T02:02:10.137Z,17.80
2019-06-20T02:02:44.934Z,17.90
2019-06-20T02:03:20.050Z,17.90
2019-06-20T02:03:54.392Z,17.90
2019-06-20T02:04:29.121Z,17.90
2019-06-20T02:05:03.845Z,17.90
2019-06-20T02:05:38.018Z,17.90
2019-06-20T02:06:12.793Z,18.00
2019-06-20T02:06:47.571Z,18.00
2019-06-20T02:07:21.756Z,18.00
2019-06-20T02:07:56.547Z,18.00
2019-06-20T02:08:31.140Z,17.90
2019-06-20T02:09:08.720Z,17.90
2019-06-20T02:09:43.747Z,17.90
2019-06-20T02:10:18.727Z,17.90
2019-06-20T02:10:52.826Z,17.80
2019-06-20T02:11:27.517Z,17.90
2019-06-20T02:12:02.271Z,17.80
2019-06-20T02:12:36.427Z,17.90
2019-06-20T02:13:11.353Z,17.80
2019-06-20T02:13:46.166Z,17.90
2019-06-20T02:14:20.465Z,17.90
2019-06-20T02:14:55.258Z,17.80
2019-06-20T02:15:30.130Z,17.80
2019-06-20T02:16:04.537Z,17.80
2019-06-20T02:16:39.346Z,17.80
2019-06-20T02:17:14.246Z,17.80
2019-06-20T02:17:48.371Z,17.80
2019-06-20T02:18:23.150Z,17.80
2019-06-20T02:18:57.860Z,17.90
2019-06-20T02:19:32.132Z,17.90
2019-06-20T02:20:07.202Z,17.90
2019-06-20T02:20:48.291Z,17.90
2019-06-20T02:21:22.467Z,17.90
2019-06-20T02:21:57.634Z,17.90
2019-06-20T02:22:32.383Z,17.90
2019-06-20T02:23:07.486Z,17.90
2019-06-20T02:23:42.078Z,18.00
2019-06-20T02:24:16.712Z,18.00
2019-06-20T02:24:50.846Z,18.00
2019-06-20T02:25:26.039Z,18.00
2019-06-20T02:26:00.740Z,17.90
2019-06-20T02:26:34.879Z,17.90
2019-06-20T02:27:09.578Z,17.90
2019-06-20T02:27:44.317Z,17.90
2019-06-20T02:28:18.772Z,17.90
2019-06-20T02:28:53.421Z,17.90
2019-06-20T02:29:28.239Z,17.90
2019-06-20T02:30:02.545Z,18.00
2019-06-20T02:30:37.609Z,18.00
2019-06-20T02:31:12.666Z,18.00
2019-06-20T02:31:46.681Z,18.00
2019-06-20T02:32:21.407Z,18.00
2019-06-20T02:32:56.165Z,18.00
2019-06-20T02:33:30.445Z,18.00
2019-06-20T02:34:05.531Z,18.00
2019-06-20T02:34:40.353Z,18.00
2019-06-20T02:35:14.728Z,18.00
2019-06-20T02:35:49.460Z,18.00
2019-06-20T02:36:24.191Z,18.00
2019-06-20T02:36:58.392Z,18.00
2019-06-20T02:37:33.146Z,18.10
2019-06-20T02:38:07.922Z,18.10
2019-06-20T02:38:42.128Z,18.10
2019-06-20T02:39:16.791Z,18.10
2019-06-20T02:39:51.550Z,18.10
2019-06-20T02:40:25.843Z,18.10
2019-06-20T02:41:00.566Z,18.10
2019-06-20T02:41:35.928Z,18.00
2019-06-20T02:42:10.071Z,18.10
2019-06-20T02:42:44.921Z,18.10
2019-06-20T02:43:19.939Z,18.10
2019-06-20T02:43:54.343Z,18.10
2019-06-20T02:44:30.810Z,18.10
2019-06-20T02:45:05.830Z,18.10
2019-06-20T02:45:40.246Z,18.10
2019-06-20T02:46:15.121Z,18.20
2019-06-20T02:46:49.919Z,18.20
2019-06-20T02:47:24.102Z,18.20
2019-06-20T02:47:58.797Z,18.20
2019-06-20T02:48:33.499Z,18.20
2019-06-20T02:49:07.685Z,18.20
2019-06-20T02:49:42.313Z,18.20
2019-06-20T02:50:17.961Z,18.20
2019-06-20T02:50:52.157Z,18.20
2019-06-20T02:51:27.676Z,18.20
2019-06-20T02:52:02.429Z,18.30
2019-06-20T02:52:36.594Z,18.30
2019-06-20T02:53:11.515Z,18.20
2019-06-20T02:53:46.304Z,18.30
2019-06-20T02:54:20.635Z,18.30
2019-06-20T02:54:55.611Z,18.30
2019-06-20T02:55:30.322Z,18.30
2019-06-20T02:56:04.745Z,18.30
2019-06-20T02:56:39.569Z,18.30
2019-06-20T02:57:14.313Z,18.30
2019-06-20T02:57:48.421Z,18.30
2019-06-20T02:58:23.010Z,18.30
2019-06-20T02:58:57.680Z,18.30
2019-06-20T02:59:31.828Z,18.30
2019-06-20T03:00:07.481Z,18.40
2019-06-20T03:00:56.715Z,18.30
2019-06-20T03:01:30.872Z,18.40
2019-06-20T03:02:05.567Z,18.40
2019-06-20T03:02:40.253Z,18.40
2019-06-20T03:03:14.449Z,18.40
2019-06-20T03:03:49.250Z,18.40
2019-06-20T03:04:23.910Z,18.40
2019-06-20T03:04:58.077Z,18.40
2019-06-20T03:05:32.775Z,18.40
2019-06-20T03:06:07.818Z,18.50
2019-06-20T03:06:42.010Z,18.50
2019-06-20T03:07:16.630Z,18.50
2019-06-20T03:07:51.262Z,18.50
2019-06-20T03:08:25.687Z,18.50
2019-06-20T03:09:00.488Z,18.40
2019-06-20T03:09:35.269Z,18.50
2019-06-20T03:10:09.753Z,18.40
2019-06-20T03:10:44.740Z,18.40
2019-06-20T03:11:19.577Z,18.50
2019-06-20T03:11:53.661Z,18.50
2019-06-20T03:12:28.429Z,18.50
2019-06-20T03:13:03.190Z,18.50
2019-06-20T03:13:37.406Z,18.50
2019-06-20T03:14:12.257Z,18.40
2019-06-20T03:14:47.080Z,18.40
2019-06-20T03:15:21.298Z,18.40
2019-06-20T03:15:56.130Z,18.40
2019-06-20T03:16:30.894Z,18.40
2019-06-20T03:17:05.316Z,18.40
2019-06-20T03:17:40.147Z,18.50
2019-06-20T03:18:14.860Z,18.50
2019-06-20T03:18:49.073Z,18.50
2019-06-20T03:19:23.741Z,18.60
2019-06-20T03:19:58.319Z,18.60
2019-06-20T03:20:32.518Z,18.60
2019-06-20T03:21:07.197Z,18.60
2019-06-20T03:21:41.941Z,18.60
2019-06-20T03:22:16.071Z,18.60
2019-06-20T03:22:50.932Z,18.60
2019-06-20T03:23:25.780Z,18.70
2019-06-20T03:23:59.827Z,18.70
2019-06-20T03:24:34.605Z,18.70
2019-06-20T03:25:10.108Z,18.70
2019-06-20T03:25:44.275Z,18.70
2019-06-20T03:26:19.105Z,18.80
2019-06-20T03:26:53.853Z,18.80
2019-06-20T03:27:28.004Z,18.80
2019-06-20T03:28:02.981Z,18.80
2019-06-20T03:28:37.670Z,18.80
2019-06-20T03:29:11.736Z,18.80
2019-06-20T03:29:46.455Z,18.80
2019-06-20T03:30:21.688Z,18.90
2019-06-20T03:30:55.751Z,18.90
2019-06-20T03:31:30.706Z,18.90
2019-06-20T03:32:05.584Z,18.90
2019-06-20T03:32:39.726Z,18.90
2019-06-20T03:33:14.422Z,18.90
2019-06-20T03:33:49.256Z,18.90
2019-06-20T03:34:23.447Z,18.90
2019-06-20T03:34:58.409Z,18.90
2019-06-20T03:35:33.291Z,18.80
2019-06-20T03:36:07.500Z,18.90
2019-06-20T03:36:42.165Z,18.80
2019-06-20T03:37:16.818Z,18.80
2019-06-20T03:37:51.013Z,18.70
2019-06-20T03:38:25.735Z,18.70
2019-06-20T03:39:00.639Z,18.70
2019-06-20T03:39:42.085Z,18.70
2019-06-20T03:40:17.158Z,18.70
2019-06-20T03:40:51.925Z,18.70
2019-06-20T03:41:26.169Z,18.70
2019-06-20T03:42:00.927Z,18.70
2019-06-20T03:42:35.671Z,18.80
2019-06-20T03:43:09.909Z,18.70
2019-06-20T03:43:44.655Z,18.80
2019-06-20T03:44:19.426Z,18.80
2019-06-20T03:45:02.115Z,18.80
2019-06-20T03:45:29.869Z,18.80
2019-06-20T03:46:04.617Z,18.80
2019-06-20T03:46:38.703Z,18.80
2019-06-20T03:47:13.285Z,18.80
2019-06-20T03:47:47.899Z,18.80
2019-06-20T03:48:22.116Z,18.80
2019-06-20T03:48:56.795Z,18.90
2019-06-20T03:49:31.708Z,18.90
2019-06-20T03:50:06.052Z,18.90
2019-06-20T03:50:40.859Z,18.90
2019-06-20T03:51:15.728Z,18.90
2019-06-20T03:51:53.567Z,18.90
2019-06-20T03:52:28.324Z,18.90
2019-06-20T03:53:03.104Z,18.90
2019-06-20T03:53:37.465Z,18.90
2019-06-20T03:54:12.367Z,19.00
2019-06-20T03:54:47.065Z,19.00
2019-06-20T03:55:21.671Z,19.00
2019-06-20T03:55:56.569Z,19.00
2019-06-20T03:56:31.233Z,19.00
2019-06-20T03:57:05.469Z,19.00
2019-06-20T03:57:40.288Z,19.00
2019-06-20T03:58:15.060Z,19.00
2019-06-20T03:58:49.420Z,19.10
2019-06-20T03:59:24.237Z,19.10
2019-06-20T03:59:58.949Z,19.10
2019-06-20T04:00:35.150Z,19.10
2019-06-20T04:01:09.816Z,19.10
2019-06-20T04:01:44.548Z,19.10
2019-06-20T04:02:18.919Z,19.10
2019-06-20T04:02:53.593Z,19.10
2019-06-20T04:03:28.279Z,19.10
2019-06-20T04:04:02.485Z,19.10
2019-06-20T04:04:37.305Z,19.10
2019-06-20T04:05:12.051Z,19.10
2019-06-20T04:05:46.281Z,19.10
2019-06-20T04:06:21.001Z,19.10
2019-06-20T04:06:55.828Z,19.10
2019-06-20T04:07:30.002Z,19.10
2019-06-20T04:08:05.145Z,19.20
2019-06-20T04:08:39.995Z,19.10
2019-06-20T04:09:14.341Z,19.10
2019-06-20T04:09:48.951Z,19.10
2019-06-20T04:10:23.706Z,19.00
2019-06-20T04:10:57.822Z,19.10
2019-06-20T04:11:32.480Z,19.00
2019-06-20T04:12:07.119Z,19.10
2019-06-20T04:12:41.426Z,19.10
2019-06-20T04:13:16.196Z,19.10
2019-06-20T04:13:52.160Z,19.10
2019-06-20T04:14:26.268Z,19.10
2019-06-20T04:15:00.982Z,19.10
2019-06-20T04:15:35.980Z,19.10
2019-06-20T04:16:10.117Z,19.10
2019-06-20T04:16:44.907Z,19.10
2019-06-20T04:17:19.970Z,19.10
2019-06-20T04:17:54.294Z,19.10
2019-06-20T04:18:29.066Z,19.10
2019-06-20T04:19:03.757Z,19.10
2019-06-20T04:19:37.999Z,19.10
2019-06-20T04:20:12.998Z,19.10
2019-06-20T04:20:47.722Z,19.10
2019-06-20T04:21:21.743Z,19.10
2019-06-20T04:21:56.784Z,19.10
2019-06-20T04:22:31.450Z,19.10
2019-06-20T04:23:05.765Z,19.10
2019-06-20T04:23:40.685Z,19.10
2019-06-20T04:24:15.530Z,19.10
2019-06-20T04:24:49.693Z,19.10
2019-06-20T04:25:24.499Z,19.00
2019-06-20T04:25:59.403Z,19.00
2019-06-20T04:26:33.719Z,19.10
2019-06-20T04:27:08.462Z,19.00
2019-06-20T04:27:43.139Z,19.00
2019-06-20T04:28:17.467Z,19.10
2019-06-20T04:28:52.161Z,19.00
2019-06-20T04:29:26.772Z,19.00
2019-06-20T04:30:00.889Z,19.00
2019-06-20T04:30:35.701Z,19.00
2019-06-20T04:31:10.452Z,19.00
2019-06-20T04:31:44.838Z,19.00
2019-06-20T04:32:19.655Z,19.00
2019-06-20T04:32:54.271Z,19.10
2019-06-20T04:33:28.555Z,19.10
2019-06-20T04:34:03.299Z,19.10
2019-06-20T04:34:38.052Z,19.10
2019-06-20T04:35:12.437Z,19.10
2019-06-20T04:35:47.104Z,19.10
2019-06-20T04:36:21.931Z,19.10
2019-06-20T04:36:56.228Z,19.10
2019-06-20T04:37:31.830Z,19.10
2019-06-20T04:38:06.452Z,19.10
2019-06-20T04:38:40.663Z,19.20
2019-06-20T04:39:19.312Z,19.20
2019-06-20T04:39:51.940Z,19.20
2019-06-20T04:40:26.340Z,19.20
2019-06-20T04:41:01.174Z,19.20
2019-06-20T04:41:36.234Z,19.20
2019-06-20T04:42:10.605Z,19.20
2019-06-20T04:42:45.490Z,19.20
2019-06-20T04:43:20.310Z,19.20
2019-06-20T04:43:54.476Z,19.20
2019-06-20T04:44:29.190Z,19.20
2019-06-20T04:45:09.148Z,19.30
2019-06-20T04:45:49.218Z,19.20
2019-06-20T04:46:29.720Z,19.30
2019-06-20T04:47:08.680Z,19.30
2019-06-20T04:47:42.885Z,19.30
2019-06-20T04:48:17.697Z,19.20
2019-06-20T04:48:52.504Z,19.20
2019-06-20T04:49:26.972Z,19.30
2019-06-20T04:50:01.811Z,19.30
2019-06-20T04:50:36.973Z,19.30
2019-06-20T04:51:11.182Z,19.30
2019-06-20T04:51:45.875Z,19.30
2019-06-20T04:52:20.722Z,19.30
2019-06-20T04:52:55.199Z,19.30
2019-06-20T04:53:29.918Z,19.30
2019-06-20T04:54:04.801Z,19.30
2019-06-20T04:54:39.322Z,19.30
2019-06-20T04:55:14.144Z,19.30
2019-06-20T04:55:48.873Z,19.30
2019-06-20T04:56:23.182Z,19.30
2019-06-20T04:56:58.161Z,19.40
2019-06-20T04:57:33.015Z,19.40
2019-06-20T04:58:07.204Z,19.40
2019-06-20T04:58:41.899Z,19.30
2019-06-20T04:59:16.690Z,19.30
2019-06-20T05:00:02.169Z,19.40
2019-06-20T05:00:37.020Z,19.40
2019-06-20T05:01:11.841Z,19.30
2019-06-20T05:01:45.971Z,19.40
2019-06-20T05:02:35.348Z,19.40
2019-06-20T05:03:10.278Z,19.40
2019-06-20T05:03:44.528Z,19.30
2019-06-20T05:04:19.339Z,19.30
2019-06-20T05:04:54.180Z,19.30
2019-06-20T05:05:28.349Z,19.30
2019-06-20T05:06:03.048Z,19.30
2019-06-20T05:06:38.218Z,19.30
2019-06-20T05:07:18.753Z,19.30
2019-06-20T05:07:53.479Z,19.30
2019-06-20T05:08:28.158Z,19.30
2019-06-20T05:09:02.490Z,19.30
2019-06-20T05:09:37.550Z,19.30
2019-06-20T05:10:13.147Z,19.30
2019-06-20T05:10:47.196Z,19.30
2019-06-20T05:11:21.841Z,19.30
2019-06-20T05:11:56.752Z,19.20
2019-06-20T05:12:30.858Z,19.20
2019-06-20T05:13:05.677Z,19.20
2019-06-20T05:13:40.507Z,19.20
2019-06-20T05:14:15.080Z,19.20
2019-06-20T05:14:49.953Z,19.20
2019-06-20T05:15:24.798Z,19.20
2019-06-20T05:15:59.038Z,19.20
2019-06-20T05:16:33.811Z,19.20
2019-06-20T05:17:08.778Z,19.20
2019-06-20T05:17:42.945Z,19.20
2019-06-20T05:18:17.640Z,19.20
2019-06-20T05:18:52.592Z,19.20
2019-06-20T05:19:26.824Z,19.20
2019-06-20T05:20:01.524Z,19.20
2019-06-20T05:20:36.434Z,19.20
2019-06-20T05:21:10.671Z,19.20
2019-06-20T05:21:45.491Z,19.20
2019-06-20T05:22:20.525Z,19.20
2019-06-20T05:22:54.681Z,19.20
2019-06-20T05:23:29.446Z,19.30
2019-06-20T05:24:04.104Z,19.30
2019-06-20T05:24:38.279Z,19.30
2019-06-20T05:25:13.693Z,19.30
2019-06-20T05:25:48.444Z,19.30
2019-06-20T05:26:22.617Z,19.30
2019-06-20T05:26:57.429Z,19.40
2019-06-20T05:27:32.435Z,19.40
2019-06-20T05:28:06.606Z,19.40
2019-06-20T05:28:41.294Z,19.50
2019-06-20T05:29:16.249Z,19.50
2019-06-20T05:29:51.553Z,19.50
2019-06-20T05:30:26.579Z,19.50
2019-06-20T05:31:01.393Z,19.50
2019-06-20T05:31:35.804Z,19.50
2019-06-20T05:32:10.461Z,19.50
2019-06-20T05:32:45.331Z,19.60
2019-06-20T05:33:19.633Z,19.60
2019-06-20T05:33:54.548Z,19.60
2019-06-20T05:34:29.266Z,19.70
2019-06-20T05:35:03.567Z,19.70
2019-06-20T05:35:38.487Z,19.70
2019-06-20T05:36:13.285Z,19.70
2019-06-20T05:36:47.423Z,19.70
2019-06-20T05:37:22.223Z,19.80
2019-06-20T05:37:57.230Z,19.80
2019-06-20T05:38:31.631Z,19.80
2019-06-20T05:39:07.682Z,19.80
2019-06-20T05:39:42.549Z,19.80
2019-06-20T05:40:17.011Z,19.80
2019-06-20T05:40:52.124Z,19.90
2019-06-20T05:41:26.774Z,19.90
2019-06-20T05:42:00.890Z,19.90
2019-06-20T05:42:35.890Z,19.90
2019-06-20T05:43:10.756Z,19.90
2019-06-20T05:43:44.889Z,19.90
2019-06-20T05:44:19.490Z,20.00
2019-06-20T05:44:54.206Z,20.00
2019-06-20T05:45:28.378Z,20.00
2019-06-20T05:46:09.313Z,20.00
2019-06-20T05:46:39.578Z,20.10
2019-06-20T05:47:14.187Z,20.10
2019-06-20T05:47:49.914Z,20.10
2019-06-20T05:48:25.371Z,20.20
2019-06-20T05:48:59.679Z,20.20
2019-06-20T05:49:34.737Z,20.20
2019-06-20T05:50:10.131Z,20.20
2019-06-20T05:50:44.318Z,20.20
2019-06-20T05:51:19.615Z,20.30
2019-06-20T05:51:54.360Z,20.20
2019-06-20T05:52:28.496Z,20.20
2019-06-20T05:53:03.194Z,20.30
2019-06-20T05:53:38.001Z,20.30
2019-06-20T05:54:12.199Z,20.30
2019-06-20T05:54:46.984Z,20.30
2019-06-20T05:55:21.644Z,20.40
2019-06-20T05:55:55.775Z,20.40
2019-06-20T05:56:30.511Z,20.40
2019-06-20T05:57:05.291Z,20.40
2019-06-20T05:57:40.177Z,20.40
2019-06-20T05:58:15.499Z,20.40
2019-06-20T05:58:50.635Z,20.40
2019-06-20T05:59:25.723Z,20.40
2019-06-20T06:00:00.955Z,20.40
2019-06-20T06:00:36.100Z,20.40
2019-06-20T06:01:10.215Z,20.40
2019-06-20T06:01:45.107Z,20.40
2019-06-20T06:02:19.818Z,20.40
2019-06-20T06:02:53.923Z,20.40
2019-06-20T06:03:28.857Z,20.40
2019-06-20T06:04:03.744Z,20.30
2019-06-20T06:04:38.008Z,20.30
2019-06-20T06:05:13.219Z,20.30
2019-06-20T06:05:48.217Z,20.30
2019-06-20T06:06:22.229Z,20.30
2019-06-20T06:06:57.100Z,20.30
2019-06-20T06:07:31.879Z,20.30
2019-06-20T06:08:06.044Z,20.30
2019-06-20T06:08:40.959Z,20.30
2019-06-20T06:09:15.570Z,20.30
2019-06-20T06:09:49.981Z,20.30
2019-06-20T06:10:25.005Z,20.30
2019-06-20T06:10:59.760Z,20.30
2019-06-20T06:11:34.120Z,20.30
2019-06-20T06:12:09.805Z,20.30
2019-06-20T06:12:45.208Z,20.30
2019-06-20T06:13:19.520Z,20.30
2019-06-20T06:13:54.461Z,20.30
2019-06-20T06:14:29.290Z,20.30
2019-06-20T06:15:03.458Z,20.30
2019-06-20T06:15:38.410Z,20.30
2019-06-20T06:16:25.645Z,20.30
2019-06-20T06:16:49.281Z,20.30
2019-06-20T06:17:24.116Z,20.40
2019-06-20T06:17:58.836Z,20.40
2019-06-20T06:18:32.989Z,20.40
2019-06-20T06:19:07.745Z,20.40
2019-06-20T06:19:42.498Z,20.40
2019-06-20T06:20:16.807Z,20.40
2019-06-20T06:20:51.417Z,20.40
2019-06-20T06:21:26.208Z,20.40
2019-06-20T06:22:00.349Z,20.40
2019-06-20T06:22:35.070Z,20.40
2019-06-20T06:23:09.815Z,20.40
2019-06-20T06:23:44.036Z,20.40
2019-06-20T06:24:18.852Z,20.50
2019-06-20T06:24:53.549Z,20.50
2019-06-20T06:25:27.662Z,20.50
2019-06-20T06:26:02.484Z,20.50
2019-06-20T06:26:37.551Z,20.50
2019-06-20T06:27:11.675Z,20.50
2019-06-20T06:27:46.513Z,20.50
2019-06-20T06:28:21.225Z,20.50
2019-06-20T06:28:55.461Z,20.50
2019-06-20T06:29:30.249Z,20.60
2019-06-20T06:30:06.358Z,20.60
2019-06-20T06:30:40.874Z,20.60
2019-06-20T06:31:15.927Z,20.60
2019-06-20T06:31:50.773Z,20.60
2019-06-20T06:32:39.181Z,20.60
2019-06-20T06:33:01.242Z,20.60
2019-06-20T06:33:35.912Z,20.60
2019-06-20T06:34:10.075Z,20.60
2019-06-20T06:34:44.827Z,20.60
2019-06-20T06:35:19.772Z,20.60
2019-06-20T06:35:53.933Z,20.70
2019-06-20T06:36:28.731Z,20.70
2019-06-20T06:37:03.662Z,20.70
2019-06-20T06:37:37.842Z,20.70
2019-06-20T06:38:12.471Z,20.70
2019-06-20T06:38:49.428Z,20.70
2019-06-20T06:39:23.747Z,20.70
2019-06-20T06:39:58.582Z,20.70
2019-06-20T06:40:33.840Z,20.80
2019-06-20T06:41:08.003Z,20.80
2019-06-20T06:41:42.819Z,20.80
2019-06-20T06:42:17.786Z,20.80
2019-06-20T06:42:52.092Z,20.90
2019-06-20T06:43:26.857Z,20.80
2019-06-20T06:44:08.172Z,20.90
2019-06-20T06:44:40.982Z,20.80
2019-06-20T06:45:16.190Z,20.90
2019-06-20T06:45:50.929Z,20.90
2019-06-20T06:46:25.322Z,21.00
2019-06-20T06:47:01.462Z,21.00
2019-06-20T06:47:41.386Z,20.90
2019-06-20T06:48:16.512Z,21.00
2019-06-20T06:48:51.462Z,20.90
2019-06-20T06:49:26.232Z,20.90
2019-06-20T06:50:00.477Z,20.90
2019-06-20T06:50:35.630Z,21.00
2019-06-20T06:51:10.332Z,20.90
2019-06-20T06:51:44.493Z,21.00
2019-06-20T06:52:19.328Z,21.10
2019-06-20T06:52:54.130Z,21.10
2019-06-20T06:53:28.469Z,21.10
2019-06-20T06:54:03.305Z,21.20
2019-06-20T06:54:38.020Z,21.20
2019-06-20T06:55:12.560Z,21.30
2019-06-20T06:55:47.313Z,21.30
2019-06-20T06:56:21.936Z,21.40
2019-06-20T06:56:56.331Z,21.40
2019-06-20T06:57:31.813Z,21.50
2019-06-20T06:58:06.782Z,21.60
2019-06-20T06:58:41.079Z,21.60
2019-06-20T06:59:16.112Z,21.60
2019-06-20T06:59:51.135Z,21.70
2019-06-20T07:00:25.487Z,21.70
2019-06-20T07:01:00.223Z,21.70
2019-06-20T07:01:35.170Z,21.80
2019-06-20T07:02:09.260Z,21.80
2019-06-20T07:02:44.194Z,21.90
2019-06-20T07:03:19.343Z,22.00
2019-06-20T07:03:53.720Z,22.00
2019-06-20T07:04:45.138Z,22.00
2019-06-20T07:05:20.180Z,22.00
2019-06-20T07:05:54.571Z,22.10
2019-06-20T07:06:29.480Z,22.10
2019-06-20T07:07:04.422Z,22.10
2019-06-20T07:07:38.788Z,22.20
2019-06-20T07:08:13.552Z,22.20
2019-06-20T07:08:48.381Z,22.20
2019-06-20T07:09:22.562Z,22.30
2019-06-20T07:09:57.343Z,22.30
2019-06-20T07:10:32.257Z,22.40
2019-06-20T07:11:06.616Z,22.40
2019-06-20T07:11:41.276Z,22.40
2019-06-20T07:12:16.182Z,22.30
2019-06-20T07:12:50.554Z,22.40
2019-06-20T07:13:25.441Z,22.40
2019-06-20T07:14:00.511Z,22.40
2019-06-20T07:14:34.861Z,22.50
2019-06-20T07:15:10.783Z,22.50
2019-06-20T07:15:45.795Z,22.60
2019-06-20T07:16:20.002Z,22.60
2019-06-20T07:17:00.370Z,22.70
2019-06-20T07:17:31.599Z,22.70
2019-06-20T07:18:05.832Z,22.80
2019-06-20T07:18:40.522Z,22.80
2019-06-20T07:19:15.243Z,22.90
2019-06-20T07:19:49.518Z,22.90
2019-06-20T07:20:25.265Z,23.00
2019-06-20T07:21:00.073Z,23.00
2019-06-20T07:21:34.383Z,23.10
2019-06-20T07:22:09.142Z,23.10
2019-06-20T07:22:44.252Z,23.10
2019-06-20T07:23:18.375Z,23.20
2019-06-20T07:23:53.526Z,23.10
2019-06-20T07:24:28.294Z,23.10
2019-06-20T07:25:02.480Z,23.10
2019-06-20T07:25:37.579Z,23.20
2019-06-20T07:26:12.191Z,23.20
2019-06-20T07:26:46.491Z,23.20
2019-06-20T07:27:21.193Z,23.20
2019-06-20T07:27:56.239Z,23.30
2019-06-20T07:28:30.638Z,23.20
2019-06-20T07:29:05.661Z,23.30